Baton Rouge Metropolitan, Ryan Field
KBTR : now visible

Airfield :











YOU CAN JOIN US ON...

 
LOGIN :

Register | Disclaimer

   EN    FR    IT 

 









Legend :    VFR   Marginal VFR   IFR   Intensive IFR   Very Intensive IFR
Visi :
Ceiling :
>= 8 km
>= 3000ft
5 to 8 km
1000 to 3000 ft
1500m to 5 km
500 to 1000 ft
800 to 1500m
200 to 500 ft
< 800m
< 200 ft
Symbols :   Thunderstorms  Fog  Heavy snow  Heavy precipitations  Wind > 20 kt






- Airport Elevation : 70 ft
- IATA code : BTR


KBTR - Baton Rouge Metropolitan, Ryan Field

CURRENT METAR :
  • 192253Z 00000KT 10SM CLR 23/07 A2999 RMK AO2 SLP156 T02280072

EXPIRED METARs :
  • 192153Z 32005KT 10SM CLR 24/07 A2998 RMK AO2 SLP151 T02440067
  • 192053Z VRB05KT 10SM CLR 25/06 A2997 RMK AO2 SLP148 T02500061 55011
  • 191953Z 35005KT 10SM CLR 25/06 A2997 RMK AO2 SLP148 T02500056

TAF KBTR
Valid from the 19 at 18:00 until the 20 at 18:00 UTC


191720Z 1918/2018 27006KT P6SM SKC
FM201000 00000KT 5SM BR FEW130 FEW250
FM201100 00000KT 3SM BR FEW140 FEW250
FM201200 00000KT 5SM BR FEW120 SCT250
FM201400 VRB04KT P6SM FEW120 FEW250



MET'MAP, your aeronautical weather chart ! - Copyright ORBIFLY December 2007 - Disclaimer

ORBIFLY MET'MAP TEAM :

Programming & Development : Alexandra Zaïnal
Concept & Development : Baudouin d'Aumeries
Co-Development & Prog : Marc-Olivier Méhu
Technical & hardware support : Manuel Goepfert

Contact : metmap@orbifly.com




SOURCES & CREDITS :

   NOAA       Earth
Advisory